TimeHST,TemperatureF,Dew PointF,Humidity,Sea Level PressureIn,VisibilityMPH,Wind Direction,Wind SpeedMPH,Gust SpeedMPH,PrecipitationIn,Events,Conditions,WindDirDegrees,DateUTC
12:42 AM,71.6,69.8,94,30.01,10.0,ESE,9.2,-,N/A,,Partly Cloudy,120,2013-12-01 10:42:00
12:56 AM,70.9,70.0,97,29.94,10.0,ESE,9.2,-,N/A,,Clear,110,2013-12-01 10:56:00
1:47 AM,69.8,69.8,100,30.00,10.0,SSE,6.9,-,N/A,,Partly Cloudy,150,2013-12-01 11:47:00
1:56 AM,70.0,70.0,100,29.93,10.0,ESE,6.9,-,N/A,,Clear,120,2013-12-01 11:56:00
2:56 AM,68.0,68.0,100,29.92,10.0,East,8.1,-,N/A,,Partly Cloudy,80,2013-12-01 12:56:00
3:56 AM,66.9,66.9,100,29.92,10.0,East,4.6,-,N/A,,Clear,90,2013-12-01 13:56:00
4:56 AM,68.0,68.0,100,29.93,10.0,Calm,Calm,-,N/A,,Clear,0,2013-12-01 14:56:00
5:56 AM,70.0,68.9,96,29.95,10.0,WSW,5.8,-,N/A,,Mostly Cloudy,240,2013-12-01 15:56:00
6:11 AM,71.6,69.8,94,30.01,10.0,SSW,4.6,-,N/A,,Mostly Cloudy,200,2013-12-01 16:11:00
6:56 AM,70.9,70.0,97,29.96,10.0,South,9.2,-,N/A,,Mostly Cloudy,190,2013-12-01 16:56:00
7:43 AM,71.6,69.8,94,30.05,10.0,South,10.4,-,N/A,,Overcast,190,2013-12-01 17:43:00
7:56 AM,71.6,69.8,94,30.05,10.0,South,6.9,-,N/A,,Overcast,180,2013-12-01 17:56:00
8:47 AM,73.4,69.8,88,30.05,10.0,South,11.5,-,N/A,,Scattered Clouds,190,2013-12-01 18:47:00
8:56 AM,73.9,68.9,84,29.99,10.0,South,9.2,-,N/A,,Partly Cloudy,180,2013-12-01 18:56:00
9:56 AM,77.9,66.9,69,29.99,10.0,SSW,12.7,-,N/A,,Partly Cloudy,210,2013-12-01 19:56:00
10:56 AM,79.0,68.9,71,29.98,10.0,South,13.8,-,N/A,,Mostly Cloudy,180,2013-12-01 20:56:00
11:42 AM,77.0,69.8,78,30.04,10.0,South,16.1,25.3,N/A,,Overcast,190,2013-12-01 21:42:00
11:56 AM,77.9,70.0,76,29.97,10.0,South,21.9,-,N/A,,Mostly Cloudy,180,2013-12-01 21:56:00
12:27 PM,78.8,66.2,65,30.01,10.0,South,23.0,26.5,N/A,,Mostly Cloudy,180,2013-12-01 22:27:00
12:56 PM,79.0,66.9,66,29.93,10.0,South,18.4,-,N/A,,Mostly Cloudy,180,2013-12-01 22:56:00
1:56 PM,78.8,69.8,74,29.96,10.0,South,16.1,24.2,N/A,,Mostly Cloudy,170,2013-12-01 23:56:00
2:56 PM,77.9,68.0,71,29.90,10.0,SSE,11.5,-,N/A,,Overcast,160,2013-12-02 00:56:00
3:04 PM,78.8,68.0,69,29.96,10.0,SSE,11.5,-,N/A,,Mostly Cloudy,160,2013-12-02 01:04:00
3:18 PM,78.8,68.0,69,29.97,10.0,SSE,10.4,-,N/A,,Mostly Cloudy,150,2013-12-02 01:18:00
3:26 PM,78.8,66.2,65,29.97,10.0,SE,10.4,-,N/A,,Overcast,140,2013-12-02 01:26:00
3:33 PM,77.0,66.2,69,29.97,10.0,SSE,10.4,-,N/A,,Overcast,160,2013-12-02 01:33:00
3:56 PM,77.0,66.9,71,29.91,10.0,SSE,9.2,-,N/A,,Mostly Cloudy,150,2013-12-02 01:56:00
4:45 PM,75.2,69.8,83,29.98,10.0,SSE,12.7,-,N/A,,Mostly Cloudy,150,2013-12-02 02:45:00
4:56 PM,75.2,71.6,89,29.99,10.0,South,10.4,18.4,N/A,,Mostly Cloudy,170,2013-12-02 02:56:00
5:10 PM,73.4,69.8,88,30.00,10.0,SSE,9.2,-,N/A,,Mostly Cloudy,160,2013-12-02 03:10:00
5:20 PM,73.4,71.6,94,30.01,10.0,South,9.2,-,N/A,,Mostly Cloudy,180,2013-12-02 03:20:00
5:40 PM,73.4,71.6,94,30.02,10.0,South,8.1,-,N/A,,Scattered Clouds,170,2013-12-02 03:40:00
5:56 PM,72.9,70.0,91,29.97,10.0,South,5.8,-,N/A,,Partly Cloudy,190,2013-12-02 03:56:00
6:56 PM,72.0,66.9,84,29.97,10.0,South,3.5,-,N/A,,Partly Cloudy,180,2013-12-02 04:56:00
7:23 PM,69.8,68.0,94,30.03,10.0,WNW,5.8,-,N/A,,Mostly Cloudy,300,2013-12-02 05:23:00
7:35 PM,69.8,68.0,94,30.03,10.0,Calm,Calm,-,N/A,,Mostly Cloudy,0,2013-12-02 05:35:00
7:44 PM,69.8,69.8,100,30.04,10.0,Calm,Calm,-,N/A,,Overcast,0,2013-12-02 05:44:00
7:56 PM,69.8,69.8,100,30.04,10.0,Calm,Calm,-,N/A,,Mostly Cloudy,0,2013-12-02 05:56:00
8:56 PM,70.0,66.9,90,30.00,10.0,Calm,Calm,-,N/A,,Partly Cloudy,0,2013-12-02 06:56:00
9:56 PM,68.9,68.0,97,30.00,10.0,East,4.6,-,N/A,,Mostly Cloudy,80,2013-12-02 07:56:00
10:56 PM,71.6,66.2,83,30.06,10.0,Calm,Calm,-,N/A,,Mostly Cloudy,0,2013-12-02 08:56:00
11:08 PM,69.8,64.4,83,30.06,10.0,East,4.6,-,N/A,,Overcast,90,2013-12-02 09:08:00
11:56 PM,68.0,66.9,96,29.99,10.0,East,4.6,-,N/A,,Scattered Clouds,90,2013-12-02 09:56:00